Aviation Digital Data Service (ADDS)

Output produced by METARs form (1934 UTC 18 June 2019)
found at http://www.aviationweather.gov/metar/data/
 
METAR text: LFST 181900Z AUTO 00000KT CAVOK 28/16 Q1012 NOSIG
Conditions at: LFST (STRASBOURG/ENTZH, FR) observed 1900 UTC 18 June 2019
Temperature: 28.0°C (82°F)
Dewpoint: 16.0°C (61°F) [RH = 48%]
Pressure (altimeter): 29.88 inches Hg (1012.0 mb)
Winds: calm
Visibility: 6 or more miles (10+ km)
Ceiling: ceiling and visibility are OK
Clouds: unknown
Weather: no significant weather observed at this time

METAR text: LFST 181830Z AUTO 00000KT CAVOK 29/17 Q1012 NOSIG
Conditions at: LFST (STRASBOURG/ENTZH, FR) observed 1830 UTC 18 June 2019
Temperature: 29.0°C (84°F)
Dewpoint: 17.0°C (63°F) [RH = 48%]
Pressure (altimeter): 29.88 inches Hg (1012.0 mb)
Winds: calm
Visibility: 6 or more miles (10+ km)
Ceiling: ceiling and visibility are OK
Clouds: unknown
Weather: no significant weather observed at this time

METAR text: LFST 181800Z AUTO 00000KT CAVOK 28/18 Q1012 NOSIG
Conditions at: LFST (STRASBOURG/ENTZH, FR) observed 1800 UTC 18 June 2019
Temperature: 28.0°C (82°F)
Dewpoint: 18.0°C (64°F) [RH = 55%]
Pressure (altimeter): 29.88 inches Hg (1012.0 mb)
Winds: calm
Visibility: 6 or more miles (10+ km)
Ceiling: ceiling and visibility are OK
Clouds: unknown
Weather: no significant weather observed at this time

METAR text: LFST 181730Z AUTO VRB03KT CAVOK 29/17 Q1012 NOSIG
Conditions at: LFST (STRASBOURG/ENTZH, FR) observed 1730 UTC 18 June 2019
Temperature: 29.0°C (84°F)
Dewpoint: 17.0°C (63°F) [RH = 48%]
Pressure (altimeter): 29.88 inches Hg (1012.0 mb)
Winds: variable direction winds at 3 MPH (3 knots; 1.5 m/s)
Visibility: 6 or more miles (10+ km)
Ceiling: ceiling and visibility are OK
Clouds: unknown
Weather: no significant weather observed at this time

METAR text: LFST 181700Z AUTO 35003KT CAVOK 29/16 Q1012 NOSIG
Conditions at: LFST (STRASBOURG/ENTZH, FR) observed 1700 UTC 18 June 2019
Temperature: 29.0°C (84°F)
Dewpoint: 16.0°C (61°F) [RH = 45%]
Pressure (altimeter): 29.88 inches Hg (1012.0 mb)
Winds: from the N (350 degrees) at 3 MPH (3 knots; 1.5 m/s)
Visibility: 6 or more miles (10+ km)
Ceiling: ceiling and visibility are OK
Clouds: unknown
Weather: no significant weather observed at this time

METAR text: LFST 181630Z AUTO VRB02KT CAVOK 29/17 Q1012 NOSIG
Conditions at: LFST (STRASBOURG/ENTZH, FR) observed 1630 UTC 18 June 2019
Temperature: 29.0°C (84°F)
Dewpoint: 17.0°C (63°F) [RH = 48%]
Pressure (altimeter): 29.88 inches Hg (1012.0 mb)
Winds: variable direction winds at 2 MPH (2 knots; 1.0 m/s)
Visibility: 6 or more miles (10+ km)
Ceiling: ceiling and visibility are OK
Clouds: unknown
Weather: no significant weather observed at this time

METAR text: LFST 181600Z AUTO 26002KT 9999 FEW008 SCT210 30/16 Q1012 TEMPO FEW040TCU
Conditions at: LFST (STRASBOURG/ENTZH, FR) observed 1600 UTC 18 June 2019
Temperature: 30.0°C (86°F)
Dewpoint: 16.0°C (61°F) [RH = 43%]
Pressure (altimeter): 29.88 inches Hg (1012.0 mb)
Winds: from the W (260 degrees) at 2 MPH (2 knots; 1.0 m/s)
Visibility: 6 or more miles (10+ km)
Ceiling: at least 12,000 feet AGL
Clouds: few clouds at 800 feet AGL
scattered clouds at 21000 feet AGL
Weather: no significant weather observed at this time

METAR text: LFST 181530Z AUTO 24003KT 200V270 CAVOK 29/18 Q1013 TEMPO FEW040TCU
Conditions at: LFST (STRASBOURG/ENTZH, FR) observed 1530 UTC 18 June 2019
Temperature: 29.0°C (84°F)
Dewpoint: 18.0°C (64°F) [RH = 52%]
Pressure (altimeter): 29.91 inches Hg (1013.0 mb)
Winds: from the WSW (240 degrees) at 3 MPH (3 knots; 1.5 m/s)
Visibility: 6 or more miles (10+ km)
Ceiling: ceiling and visibility are OK
Clouds: unknown
Weather: no significant weather observed at this time

METAR text: LFST 181500Z AUTO 22003KT 180V250 CAVOK 28/16 Q1013 NOSIG
Conditions at: LFST (STRASBOURG/ENTZH, FR) observed 1500 UTC 18 June 2019
Temperature: 28.0°C (82°F)
Dewpoint: 16.0°C (61°F) [RH = 48%]
Pressure (altimeter): 29.91 inches Hg (1013.0 mb)
Winds: from the SW (220 degrees) at 3 MPH (3 knots; 1.5 m/s)
Visibility: 6 or more miles (10+ km)
Ceiling: ceiling and visibility are OK
Clouds: unknown
Weather: no significant weather observed at this time

METAR text: LFST 181430Z AUTO 22004KT 180V240 CAVOK 29/17 Q1013 NOSIG
Conditions at: LFST (STRASBOURG/ENTZH, FR) observed 1430 UTC 18 June 2019
Temperature: 29.0°C (84°F)
Dewpoint: 17.0°C (63°F) [RH = 48%]
Pressure (altimeter): 29.91 inches Hg (1013.0 mb)
Winds: from the SW (220 degrees) at 5 MPH (4 knots; 2.1 m/s)
Visibility: 6 or more miles (10+ km)
Ceiling: ceiling and visibility are OK
Clouds: unknown
Weather: no significant weather observed at this time

METAR text: LFST 181400Z AUTO 19005KT 130V240 9999 ///TCU 29/16 Q1013 BECMG NSC
Conditions at: LFST (STRASBOURG/ENTZH, FR) observed 1400 UTC 18 June 2019
Temperature: 29.0°C (84°F)
Dewpoint: 16.0°C (61°F) [RH = 45%]
Pressure (altimeter): 29.91 inches Hg (1013.0 mb)
Winds: from the S (190 degrees) at 6 MPH (5 knots; 2.6 m/s)
Visibility: 6 or more miles (10+ km)
Ceiling: unknown
Clouds: missing
Weather: no significant weather observed at this time

METAR text: LFST 181330Z AUTO 18005KT 130V220 CAVOK 29/15 Q1013 NOSIG
Conditions at: LFST (STRASBOURG/ENTZH, FR) observed 1330 UTC 18 June 2019
Temperature: 29.0°C (84°F)
Dewpoint: 15.0°C (59°F) [RH = 43%]
Pressure (altimeter): 29.91 inches Hg (1013.0 mb)
Winds: from the S (180 degrees) at 6 MPH (5 knots; 2.6 m/s)
Visibility: 6 or more miles (10+ km)
Ceiling: ceiling and visibility are OK
Clouds: unknown
Weather: no significant weather observed at this time

METAR text: LFST 181300Z AUTO 19004KT 090V250 CAVOK 29/15 Q1013 NOSIG
Conditions at: LFST (STRASBOURG/ENTZH, FR) observed 1300 UTC 18 June 2019
Temperature: 29.0°C (84°F)
Dewpoint: 15.0°C (59°F) [RH = 43%]
Pressure (altimeter): 29.91 inches Hg (1013.0 mb)
Winds: from the S (190 degrees) at 5 MPH (4 knots; 2.1 m/s)
Visibility: 6 or more miles (10+ km)
Ceiling: ceiling and visibility are OK
Clouds: unknown
Weather: no significant weather observed at this time

METAR text: LFST 181230Z AUTO VRB03KT CAVOK 30/15 Q1013 NOSIG
Conditions at: LFST (STRASBOURG/ENTZH, FR) observed 1230 UTC 18 June 2019
Temperature: 30.0°C (86°F)
Dewpoint: 15.0°C (59°F) [RH = 40%]
Pressure (altimeter): 29.91 inches Hg (1013.0 mb)
Winds: variable direction winds at 3 MPH (3 knots; 1.5 m/s)
Visibility: 6 or more miles (10+ km)
Ceiling: ceiling and visibility are OK
Clouds: unknown
Weather: no significant weather observed at this time

METAR text: LFST 181200Z AUTO VRB03KT CAVOK 29/13 Q1014 NOSIG
Conditions at: LFST (STRASBOURG/ENTZH, FR) observed 1200 UTC 18 June 2019
Temperature: 29.0°C (84°F)
Dewpoint: 13.0°C (55°F) [RH = 37%]
Pressure (altimeter): 29.94 inches Hg (1014.0 mb)
Winds: variable direction winds at 3 MPH (3 knots; 1.5 m/s)
Visibility: 6 or more miles (10+ km)
Ceiling: ceiling and visibility are OK
Clouds: unknown
Weather: no significant weather observed at this time

METAR text: LFST 181130Z AUTO VRB03KT CAVOK 28/16 Q1014 NOSIG
Conditions at: LFST (STRASBOURG/ENTZH, FR) observed 1130 UTC 18 June 2019
Temperature: 28.0°C (82°F)
Dewpoint: 16.0°C (61°F) [RH = 48%]
Pressure (altimeter): 29.94 inches Hg (1014.0 mb)
Winds: variable direction winds at 3 MPH (3 knots; 1.5 m/s)
Visibility: 6 or more miles (10+ km)
Ceiling: ceiling and visibility are OK
Clouds: unknown
Weather: no significant weather observed at this time

METAR text: LFST 181100Z AUTO VRB03KT CAVOK 28/15 Q1014 NOSIG
Conditions at: LFST (STRASBOURG/ENTZH, FR) observed 1100 UTC 18 June 2019
Temperature: 28.0°C (82°F)
Dewpoint: 15.0°C (59°F) [RH = 45%]
Pressure (altimeter): 29.94 inches Hg (1014.0 mb)
Winds: variable direction winds at 3 MPH (3 knots; 1.5 m/s)
Visibility: 6 or more miles (10+ km)
Ceiling: ceiling and visibility are OK
Clouds: unknown
Weather: no significant weather observed at this time

METAR text: LFST 181030Z AUTO VRB02KT CAVOK 27/17 Q1014 NOSIG
Conditions at: LFST (STRASBOURG/ENTZH, FR) observed 1030 UTC 18 June 2019
Temperature: 27.0°C (81°F)
Dewpoint: 17.0°C (63°F) [RH = 54%]
Pressure (altimeter): 29.94 inches Hg (1014.0 mb)
Winds: variable direction winds at 2 MPH (2 knots; 1.0 m/s)
Visibility: 6 or more miles (10+ km)
Ceiling: ceiling and visibility are OK
Clouds: unknown
Weather: no significant weather observed at this time

METAR text: LFST 181000Z AUTO VRB02KT CAVOK 27/18 Q1015 NOSIG
Conditions at: LFST (STRASBOURG/ENTZH, FR) observed 1000 UTC 18 June 2019
Temperature: 27.0°C (81°F)
Dewpoint: 18.0°C (64°F) [RH = 58%]
Pressure (altimeter): 29.97 inches Hg (1015.0 mb)
Winds: variable direction winds at 2 MPH (2 knots; 1.0 m/s)
Visibility: 6 or more miles (10+ km)
Ceiling: ceiling and visibility are OK
Clouds: unknown
Weather: no significant weather observed at this time

METAR text: LFST 180930Z AUTO VRB03KT CAVOK 26/17 Q1015 NOSIG
Conditions at: LFST (STRASBOURG/ENTZH, FR) observed 0930 UTC 18 June 2019
Temperature: 26.0°C (79°F)
Dewpoint: 17.0°C (63°F) [RH = 58%]
Pressure (altimeter): 29.97 inches Hg (1015.0 mb)
Winds: variable direction winds at 3 MPH (3 knots; 1.5 m/s)
Visibility: 6 or more miles (10+ km)
Ceiling: ceiling and visibility are OK
Clouds: unknown
Weather: no significant weather observed at this time

METAR text: LFST 180900Z AUTO VRB02KT CAVOK 25/16 Q1015 NOSIG
Conditions at: LFST (STRASBOURG/ENTZH, FR) observed 0900 UTC 18 June 2019
Temperature: 25.0°C (77°F)
Dewpoint: 16.0°C (61°F) [RH = 57%]
Pressure (altimeter): 29.97 inches Hg (1015.0 mb)
Winds: variable direction winds at 2 MPH (2 knots; 1.0 m/s)
Visibility: 6 or more miles (10+ km)
Ceiling: ceiling and visibility are OK
Clouds: unknown
Weather: no significant weather observed at this time

METAR text: LFST 180830Z AUTO VRB03KT CAVOK 24/16 Q1015 NOSIG
Conditions at: LFST (STRASBOURG/ENTZH, FR) observed 0830 UTC 18 June 2019
Temperature: 24.0°C (75°F)
Dewpoint: 16.0°C (61°F) [RH = 61%]
Pressure (altimeter): 29.97 inches Hg (1015.0 mb)
Winds: variable direction winds at 3 MPH (3 knots; 1.5 m/s)
Visibility: 6 or more miles (10+ km)
Ceiling: ceiling and visibility are OK
Clouds: unknown
Weather: no significant weather observed at this time

METAR text: LFST 180800Z AUTO 00000KT CAVOK 23/17 Q1015 NOSIG
Conditions at: LFST (STRASBOURG/ENTZH, FR) observed 0800 UTC 18 June 2019
Temperature: 23.0°C (73°F)
Dewpoint: 17.0°C (63°F) [RH = 69%]
Pressure (altimeter): 29.97 inches Hg (1015.0 mb)
Winds: calm
Visibility: 6 or more miles (10+ km)
Ceiling: ceiling and visibility are OK
Clouds: unknown
Weather: no significant weather observed at this time

METAR text: LFST 180730Z AUTO VRB02KT CAVOK 23/16 Q1016 NOSIG
Conditions at: LFST (STRASBOURG/ENTZH, FR) observed 0730 UTC 18 June 2019
Temperature: 23.0°C (73°F)
Dewpoint: 16.0°C (61°F) [RH = 65%]
Pressure (altimeter): 30.00 inches Hg (1016.0 mb)
Winds: variable direction winds at 2 MPH (2 knots; 1.0 m/s)
Visibility: 6 or more miles (10+ km)
Ceiling: ceiling and visibility are OK
Clouds: unknown
Weather: no significant weather observed at this time

METAR text: LFST 180700Z AUTO 00000KT CAVOK 21/16 Q1016 NOSIG
Conditions at: LFST (STRASBOURG/ENTZH, FR) observed 0700 UTC 18 June 2019
Temperature: 21.0°C (70°F)
Dewpoint: 16.0°C (61°F) [RH = 73%]
Pressure (altimeter): 30.00 inches Hg (1016.0 mb)
Winds: calm
Visibility: 6 or more miles (10+ km)
Ceiling: ceiling and visibility are OK
Clouds: unknown
Weather: no significant weather observed at this time

METAR text: LFST 180630Z AUTO 00000KT CAVOK 22/15 Q1016 NOSIG
Conditions at: LFST (STRASBOURG/ENTZH, FR) observed 0630 UTC 18 June 2019
Temperature: 22.0°C (72°F)
Dewpoint: 15.0°C (59°F) [RH = 65%]
Pressure (altimeter): 30.00 inches Hg (1016.0 mb)
Winds: calm
Visibility: 6 or more miles (10+ km)
Ceiling: ceiling and visibility are OK
Clouds: unknown
Weather: no significant weather observed at this time

METAR text: LFST 180600Z AUTO 00000KT CAVOK 21/15 Q1016 NOSIG
Conditions at: LFST (STRASBOURG/ENTZH, FR) observed 0600 UTC 18 June 2019
Temperature: 21.0°C (70°F)
Dewpoint: 15.0°C (59°F) [RH = 69%]
Pressure (altimeter): 30.00 inches Hg (1016.0 mb)
Winds: calm
Visibility: 6 or more miles (10+ km)
Ceiling: ceiling and visibility are OK
Clouds: unknown
Weather: no significant weather observed at this time

METAR text: LFST 180530Z AUTO 00000KT CAVOK 19/15 Q1016 NOSIG
Conditions at: LFST (STRASBOURG/ENTZH, FR) observed 0530 UTC 18 June 2019
Temperature: 19.0°C (66°F)
Dewpoint: 15.0°C (59°F) [RH = 78%]
Pressure (altimeter): 30.00 inches Hg (1016.0 mb)
Winds: calm
Visibility: 6 or more miles (10+ km)
Ceiling: ceiling and visibility are OK
Clouds: unknown
Weather: no significant weather observed at this time

METAR text: LFST 180500Z AUTO 22001KT CAVOK 17/15 Q1015 NOSIG
Conditions at: LFST (STRASBOURG/ENTZH, FR) observed 0500 UTC 18 June 2019
Temperature: 17.0°C (63°F)
Dewpoint: 15.0°C (59°F) [RH = 88%]
Pressure (altimeter): 29.97 inches Hg (1015.0 mb)
Winds: from the SW (220 degrees) at 1 MPH (1 knots; 0.5 m/s)
Visibility: 6 or more miles (10+ km)
Ceiling: ceiling and visibility are OK
Clouds: unknown
Weather: no significant weather observed at this time

METAR text: LFST 180430Z AUTO 23002KT CAVOK 16/14 Q1015 NOSIG
Conditions at: LFST (STRASBOURG/ENTZH, FR) observed 0430 UTC 18 June 2019
Temperature: 16.0°C (61°F)
Dewpoint: 14.0°C (57°F) [RH = 88%]
Pressure (altimeter): 29.97 inches Hg (1015.0 mb)
Winds: from the SW (230 degrees) at 2 MPH (2 knots; 1.0 m/s)
Visibility: 6 or more miles (10+ km)
Ceiling: ceiling and visibility are OK
Clouds: unknown
Weather: no significant weather observed at this time

METAR text: LFST 180400Z AUTO 23001KT CAVOK 15/14 Q1015 NOSIG
Conditions at: LFST (STRASBOURG/ENTZH, FR) observed 0400 UTC 18 June 2019
Temperature: 15.0°C (59°F)
Dewpoint: 14.0°C (57°F) [RH = 94%]
Pressure (altimeter): 29.97 inches Hg (1015.0 mb)
Winds: from the SW (230 degrees) at 1 MPH (1 knots; 0.5 m/s)
Visibility: 6 or more miles (10+ km)
Ceiling: ceiling and visibility are OK
Clouds: unknown
Weather: no significant weather observed at this time

METAR text: LFST 180330Z AUTO 00000KT CAVOK 15/14 Q1015 NOSIG
Conditions at: LFST (STRASBOURG/ENTZH, FR) observed 0330 UTC 18 June 2019
Temperature: 15.0°C (59°F)
Dewpoint: 14.0°C (57°F) [RH = 94%]
Pressure (altimeter): 29.97 inches Hg (1015.0 mb)
Winds: calm
Visibility: 6 or more miles (10+ km)
Ceiling: ceiling and visibility are OK
Clouds: unknown
Weather: no significant weather observed at this time

METAR text: LFST 180300Z AUTO 00000KT CAVOK 15/14 Q1015 NOSIG
Conditions at: LFST (STRASBOURG/ENTZH, FR) observed 0300 UTC 18 June 2019
Temperature: 15.0°C (59°F)
Dewpoint: 14.0°C (57°F) [RH = 94%]
Pressure (altimeter): 29.97 inches Hg (1015.0 mb)
Winds: calm
Visibility: 6 or more miles (10+ km)
Ceiling: ceiling and visibility are OK
Clouds: unknown
Weather: no significant weather observed at this time

METAR text: LFST 180230Z AUTO 00000KT CAVOK 16/14 Q1015 NOSIG
Conditions at: LFST (STRASBOURG/ENTZH, FR) observed 0230 UTC 18 June 2019
Temperature: 16.0°C (61°F)
Dewpoint: 14.0°C (57°F) [RH = 88%]
Pressure (altimeter): 29.97 inches Hg (1015.0 mb)
Winds: calm
Visibility: 6 or more miles (10+ km)
Ceiling: ceiling and visibility are OK
Clouds: unknown
Weather: no significant weather observed at this time

METAR text: LFST 180200Z AUTO 00000KT CAVOK 16/14 Q1015 NOSIG
Conditions at: LFST (STRASBOURG/ENTZH, FR) observed 0200 UTC 18 June 2019
Temperature: 16.0°C (61°F)
Dewpoint: 14.0°C (57°F) [RH = 88%]
Pressure (altimeter): 29.97 inches Hg (1015.0 mb)
Winds: calm
Visibility: 6 or more miles (10+ km)
Ceiling: ceiling and visibility are OK
Clouds: unknown
Weather: no significant weather observed at this time

METAR text: LFST 180130Z AUTO 26002KT CAVOK 16/15 Q1015 NOSIG
Conditions at: LFST (STRASBOURG/ENTZH, FR) observed 0130 UTC 18 June 2019
Temperature: 16.0°C (61°F)
Dewpoint: 15.0°C (59°F) [RH = 94%]
Pressure (altimeter): 29.97 inches Hg (1015.0 mb)
Winds: from the W (260 degrees) at 2 MPH (2 knots; 1.0 m/s)
Visibility: 6 or more miles (10+ km)
Ceiling: ceiling and visibility are OK
Clouds: unknown
Weather: no significant weather observed at this time

METAR text: LFST 180100Z AUTO 36001KT CAVOK 16/15 Q1015 NOSIG
Conditions at: LFST (STRASBOURG/ENTZH, FR) observed 0100 UTC 18 June 2019
Temperature: 16.0°C (61°F)
Dewpoint: 15.0°C (59°F) [RH = 94%]
Pressure (altimeter): 29.97 inches Hg (1015.0 mb)
Winds: from the N (360 degrees) at 1 MPH (1 knots; 0.5 m/s)
Visibility: 6 or more miles (10+ km)
Ceiling: ceiling and visibility are OK
Clouds: unknown
Weather: no significant weather observed at this time

METAR text: LFST 180030Z AUTO 34002KT CAVOK 17/15 Q1016 NOSIG
Conditions at: LFST (STRASBOURG/ENTZH, FR) observed 0030 UTC 18 June 2019
Temperature: 17.0°C (63°F)
Dewpoint: 15.0°C (59°F) [RH = 88%]
Pressure (altimeter): 30.00 inches Hg (1016.0 mb)
Winds: from the NNW (340 degrees) at 2 MPH (2 knots; 1.0 m/s)
Visibility: 6 or more miles (10+ km)
Ceiling: ceiling and visibility are OK
Clouds: unknown
Weather: no significant weather observed at this time

METAR text: LFST 180000Z AUTO 30002KT CAVOK 17/15 Q1016 NOSIG
Conditions at: LFST (STRASBOURG/ENTZH, FR) observed 0000 UTC 18 June 2019
Temperature: 17.0°C (63°F)
Dewpoint: 15.0°C (59°F) [RH = 88%]
Pressure (altimeter): 30.00 inches Hg (1016.0 mb)
Winds: from the WNW (300 degrees) at 2 MPH (2 knots; 1.0 m/s)
Visibility: 6 or more miles (10+ km)
Ceiling: ceiling and visibility are OK
Clouds: unknown
Weather: no significant weather observed at this time

METAR text: LFST 172330Z AUTO 28004KT CAVOK 18/15 Q1016 NOSIG
Conditions at: LFST (STRASBOURG/ENTZH, FR) observed 2330 UTC 17 June 2019
Temperature: 18.0°C (64°F)
Dewpoint: 15.0°C (59°F) [RH = 83%]
Pressure (altimeter): 30.00 inches Hg (1016.0 mb)
Winds: from the W (280 degrees) at 5 MPH (4 knots; 2.1 m/s)
Visibility: 6 or more miles (10+ km)
Ceiling: ceiling and visibility are OK
Clouds: unknown
Weather: no significant weather observed at this time

METAR text: LFST 172300Z AUTO VRB03KT CAVOK 18/15 Q1016 NOSIG
Conditions at: LFST (STRASBOURG/ENTZH, FR) observed 2300 UTC 17 June 2019
Temperature: 18.0°C (64°F)
Dewpoint: 15.0°C (59°F) [RH = 83%]
Pressure (altimeter): 30.00 inches Hg (1016.0 mb)
Winds: variable direction winds at 3 MPH (3 knots; 1.5 m/s)
Visibility: 6 or more miles (10+ km)
Ceiling: ceiling and visibility are OK
Clouds: unknown
Weather: no significant weather observed at this time

METAR text: LFST 172230Z AUTO 33003KT CAVOK 19/15 Q1016 NOSIG
Conditions at: LFST (STRASBOURG/ENTZH, FR) observed 2230 UTC 17 June 2019
Temperature: 19.0°C (66°F)
Dewpoint: 15.0°C (59°F) [RH = 78%]
Pressure (altimeter): 30.00 inches Hg (1016.0 mb)
Winds: from the NNW (330 degrees) at 3 MPH (3 knots; 1.5 m/s)
Visibility: 6 or more miles (10+ km)
Ceiling: ceiling and visibility are OK
Clouds: unknown
Weather: no significant weather observed at this time

METAR text: LFST 172200Z AUTO 31003KT CAVOK 20/15 Q1016 NOSIG
Conditions at: LFST (STRASBOURG/ENTZH, FR) observed 2200 UTC 17 June 2019
Temperature: 20.0°C (68°F)
Dewpoint: 15.0°C (59°F) [RH = 73%]
Pressure (altimeter): 30.00 inches Hg (1016.0 mb)
Winds: from the NW (310 degrees) at 3 MPH (3 knots; 1.5 m/s)
Visibility: 6 or more miles (10+ km)
Ceiling: ceiling and visibility are OK
Clouds: unknown
Weather: no significant weather observed at this time

METAR text: LFST 172130Z AUTO 33002KT CAVOK 20/15 Q1016 NOSIG
Conditions at: LFST (STRASBOURG/ENTZH, FR) observed 2130 UTC 17 June 2019
Temperature: 20.0°C (68°F)
Dewpoint: 15.0°C (59°F) [RH = 73%]
Pressure (altimeter): 30.00 inches Hg (1016.0 mb)
Winds: from the NNW (330 degrees) at 2 MPH (2 knots; 1.0 m/s)
Visibility: 6 or more miles (10+ km)
Ceiling: ceiling and visibility are OK
Clouds: unknown
Weather: no significant weather observed at this time

METAR text: LFST 172100Z AUTO 00000KT CAVOK 21/15 Q1016 NOSIG
Conditions at: LFST (STRASBOURG/ENTZH, FR) observed 2100 UTC 17 June 2019
Temperature: 21.0°C (70°F)
Dewpoint: 15.0°C (59°F) [RH = 69%]
Pressure (altimeter): 30.00 inches Hg (1016.0 mb)
Winds: calm
Visibility: 6 or more miles (10+ km)
Ceiling: ceiling and visibility are OK
Clouds: unknown
Weather: no significant weather observed at this time

METAR text: LFST 172030Z AUTO 34005KT CAVOK 21/15 Q1016 NOSIG
Conditions at: LFST (STRASBOURG/ENTZH, FR) observed 2030 UTC 17 June 2019
Temperature: 21.0°C (70°F)
Dewpoint: 15.0°C (59°F) [RH = 69%]
Pressure (altimeter): 30.00 inches Hg (1016.0 mb)
Winds: from the NNW (340 degrees) at 6 MPH (5 knots; 2.6 m/s)
Visibility: 6 or more miles (10+ km)
Ceiling: ceiling and visibility are OK
Clouds: unknown
Weather: no significant weather observed at this time

METAR text: LFST 172000Z AUTO 33005KT CAVOK 20/16 Q1016 NOSIG
Conditions at: LFST (STRASBOURG/ENTZH, FR) observed 2000 UTC 17 June 2019
Temperature: 20.0°C (68°F)
Dewpoint: 16.0°C (61°F) [RH = 78%]
Pressure (altimeter): 30.00 inches Hg (1016.0 mb)
Winds: from the NNW (330 degrees) at 6 MPH (5 knots; 2.6 m/s)
Visibility: 6 or more miles (10+ km)
Ceiling: ceiling and visibility are OK
Clouds: unknown
Weather: no significant weather observed at this time

METAR text: LFST 171930Z AUTO 36005KT CAVOK 23/15 Q1016 NOSIG
Conditions at: LFST (STRASBOURG/ENTZH, FR) observed 1930 UTC 17 June 2019
Temperature: 23.0°C (73°F)
Dewpoint: 15.0°C (59°F) [RH = 61%]
Pressure (altimeter): 30.00 inches Hg (1016.0 mb)
Winds: from the N (360 degrees) at 6 MPH (5 knots; 2.6 m/s)
Visibility: 6 or more miles (10+ km)
Ceiling: ceiling and visibility are OK
Clouds: unknown
Weather: no significant weather observed at this time

METAR text: LFST 171900Z AUTO 35005KT CAVOK 24/15 Q1016 NOSIG
Conditions at: LFST (STRASBOURG/ENTZH, FR) observed 1900 UTC 17 June 2019
Temperature: 24.0°C (75°F)
Dewpoint: 15.0°C (59°F) [RH = 57%]
Pressure (altimeter): 30.00 inches Hg (1016.0 mb)
Winds: from the N (350 degrees) at 6 MPH (5 knots; 2.6 m/s)
Visibility: 6 or more miles (10+ km)
Ceiling: ceiling and visibility are OK
Clouds: unknown
Weather: no significant weather observed at this time

METAR text: LFST 171830Z AUTO 01008KT CAVOK 26/15 Q1016 NOSIG
Conditions at: LFST (STRASBOURG/ENTZH, FR) observed 1830 UTC 17 June 2019
Temperature: 26.0°C (79°F)
Dewpoint: 15.0°C (59°F) [RH = 51%]
Pressure (altimeter): 30.00 inches Hg (1016.0 mb)
Winds: from the N (10 degrees) at 9 MPH (8 knots; 4.1 m/s)
Visibility: 6 or more miles (10+ km)
Ceiling: ceiling and visibility are OK
Clouds: unknown
Weather: no significant weather observed at this time

METAR text: LFST 171800Z AUTO 01009KT CAVOK 26/15 Q1016 NOSIG
Conditions at: LFST (STRASBOURG/ENTZH, FR) observed 1800 UTC 17 June 2019
Temperature: 26.0°C (79°F)
Dewpoint: 15.0°C (59°F) [RH = 51%]
Pressure (altimeter): 30.00 inches Hg (1016.0 mb)
Winds: from the N (10 degrees) at 10 MPH (9 knots; 4.6 m/s)
Visibility: 6 or more miles (10+ km)
Ceiling: ceiling and visibility are OK
Clouds: unknown
Weather: no significant weather observed at this time

METAR text: LFST 171730Z AUTO 02010KT CAVOK 27/15 Q1016 NOSIG
Conditions at: LFST (STRASBOURG/ENTZH, FR) observed 1730 UTC 17 June 2019
Temperature: 27.0°C (81°F)
Dewpoint: 15.0°C (59°F) [RH = 48%]
Pressure (altimeter): 30.00 inches Hg (1016.0 mb)
Winds: from the NNE (20 degrees) at 12 MPH (10 knots; 5.1 m/s)
Visibility: 6 or more miles (10+ km)
Ceiling: ceiling and visibility are OK
Clouds: unknown
Weather: no significant weather observed at this time

METAR text: LFST 171700Z AUTO 04010KT 9999 FEW009 27/14 Q1016 NOSIG
Conditions at: LFST (STRASBOURG/ENTZH, FR) observed 1700 UTC 17 June 2019
Temperature: 27.0°C (81°F)
Dewpoint: 14.0°C (57°F) [RH = 45%]
Pressure (altimeter): 30.00 inches Hg (1016.0 mb)
Winds: from the NE (40 degrees) at 12 MPH (10 knots; 5.1 m/s)
Visibility: 6 or more miles (10+ km)
Ceiling: at least 12,000 feet AGL
Clouds: few clouds at 900 feet AGL
Weather: no significant weather observed at this time

METAR text: LFST 171630Z AUTO 03010KT CAVOK 27/14 Q1016 NOSIG
Conditions at: LFST (STRASBOURG/ENTZH, FR) observed 1630 UTC 17 June 2019
Temperature: 27.0°C (81°F)
Dewpoint: 14.0°C (57°F) [RH = 45%]
Pressure (altimeter): 30.00 inches Hg (1016.0 mb)
Winds: from the NNE (30 degrees) at 12 MPH (10 knots; 5.1 m/s)
Visibility: 6 or more miles (10+ km)
Ceiling: ceiling and visibility are OK
Clouds: unknown
Weather: no significant weather observed at this time

METAR text: LFST 171600Z AUTO 02010KT CAVOK 27/14 Q1016 NOSIG
Conditions at: LFST (STRASBOURG/ENTZH, FR) observed 1600 UTC 17 June 2019
Temperature: 27.0°C (81°F)
Dewpoint: 14.0°C (57°F) [RH = 45%]
Pressure (altimeter): 30.00 inches Hg (1016.0 mb)
Winds: from the NNE (20 degrees) at 12 MPH (10 knots; 5.1 m/s)
Visibility: 6 or more miles (10+ km)
Ceiling: ceiling and visibility are OK
Clouds: unknown
Weather: no significant weather observed at this time

METAR text: LFST 171530Z AUTO 03007KT 360V060 CAVOK 28/14 Q1016 NOSIG
Conditions at: LFST (STRASBOURG/ENTZH, FR) observed 1530 UTC 17 June 2019
Temperature: 28.0°C (82°F)
Dewpoint: 14.0°C (57°F) [RH = 42%]
Pressure (altimeter): 30.00 inches Hg (1016.0 mb)
Winds: from the NNE (30 degrees) at 8 MPH (7 knots; 3.6 m/s)
Visibility: 6 or more miles (10+ km)
Ceiling: ceiling and visibility are OK
Clouds: unknown
Weather: no significant weather observed at this time

METAR text: LFST 171500Z AUTO 04007KT 360V070 CAVOK 27/14 Q1017 NOSIG
Conditions at: LFST (STRASBOURG/ENTZH, FR) observed 1500 UTC 17 June 2019
Temperature: 27.0°C (81°F)
Dewpoint: 14.0°C (57°F) [RH = 45%]
Pressure (altimeter): 30.03 inches Hg (1017.0 mb)
Winds: from the NE (40 degrees) at 8 MPH (7 knots; 3.6 m/s)
Visibility: 6 or more miles (10+ km)
Ceiling: ceiling and visibility are OK
Clouds: unknown
Weather: no significant weather observed at this time

METAR text: LFST 171430Z AUTO 35007KT 310V040 CAVOK 27/13 Q1017 NOSIG
Conditions at: LFST (STRASBOURG/ENTZH, FR) observed 1430 UTC 17 June 2019
Temperature: 27.0°C (81°F)
Dewpoint: 13.0°C (55°F) [RH = 42%]
Pressure (altimeter): 30.03 inches Hg (1017.0 mb)
Winds: from the N (350 degrees) at 8 MPH (7 knots; 3.6 m/s)
Visibility: 6 or more miles (10+ km)
Ceiling: ceiling and visibility are OK
Clouds: unknown
Weather: no significant weather observed at this time

METAR text: LFST 171400Z AUTO 35007KT 320V050 CAVOK 27/14 Q1017 NOSIG
Conditions at: LFST (STRASBOURG/ENTZH, FR) observed 1400 UTC 17 June 2019
Temperature: 27.0°C (81°F)
Dewpoint: 14.0°C (57°F) [RH = 45%]
Pressure (altimeter): 30.03 inches Hg (1017.0 mb)
Winds: from the N (350 degrees) at 8 MPH (7 knots; 3.6 m/s)
Visibility: 6 or more miles (10+ km)
Ceiling: ceiling and visibility are OK
Clouds: unknown
Weather: no significant weather observed at this time

METAR text: LFST 171330Z AUTO 01007KT CAVOK 27/12 Q1017 NOSIG
Conditions at: LFST (STRASBOURG/ENTZH, FR) observed 1330 UTC 17 June 2019
Temperature: 27.0°C (81°F)
Dewpoint: 12.0°C (54°F) [RH = 39%]
Pressure (altimeter): 30.03 inches Hg (1017.0 mb)
Winds: from the N (10 degrees) at 8 MPH (7 knots; 3.6 m/s)
Visibility: 6 or more miles (10+ km)
Ceiling: ceiling and visibility are OK
Clouds: unknown
Weather: no significant weather observed at this time

METAR text: LFST 171300Z AUTO 01006KT 330V050 CAVOK 26/13 Q1018 NOSIG
Conditions at: LFST (STRASBOURG/ENTZH, FR) observed 1300 UTC 17 June 2019
Temperature: 26.0°C (79°F)
Dewpoint: 13.0°C (55°F) [RH = 45%]
Pressure (altimeter): 30.06 inches Hg (1018.0 mb)
Winds: from the N (10 degrees) at 7 MPH (6 knots; 3.1 m/s)
Visibility: 6 or more miles (10+ km)
Ceiling: ceiling and visibility are OK
Clouds: unknown
Weather: no significant weather observed at this time

METAR text: LFST 171230Z AUTO 03007KT 350V070 CAVOK 26/14 Q1018 NOSIG
Conditions at: LFST (STRASBOURG/ENTZH, FR) observed 1230 UTC 17 June 2019
Temperature: 26.0°C (79°F)
Dewpoint: 14.0°C (57°F) [RH = 48%]
Pressure (altimeter): 30.06 inches Hg (1018.0 mb)
Winds: from the NNE (30 degrees) at 8 MPH (7 knots; 3.6 m/s)
Visibility: 6 or more miles (10+ km)
Ceiling: ceiling and visibility are OK
Clouds: unknown
Weather: no significant weather observed at this time

METAR text: LFST 171200Z AUTO 03008KT 350V070 CAVOK 26/14 Q1018 NOSIG
Conditions at: LFST (STRASBOURG/ENTZH, FR) observed 1200 UTC 17 June 2019
Temperature: 26.0°C (79°F)
Dewpoint: 14.0°C (57°F) [RH = 48%]
Pressure (altimeter): 30.06 inches Hg (1018.0 mb)
Winds: from the NNE (30 degrees) at 9 MPH (8 knots; 4.1 m/s)
Visibility: 6 or more miles (10+ km)
Ceiling: ceiling and visibility are OK
Clouds: unknown
Weather: no significant weather observed at this time

METAR text: LFST 171130Z AUTO 01008KT 330V070 CAVOK 25/14 Q1018 NOSIG
Conditions at: LFST (STRASBOURG/ENTZH, FR) observed 1130 UTC 17 June 2019
Temperature: 25.0°C (77°F)
Dewpoint: 14.0°C (57°F) [RH = 50%]
Pressure (altimeter): 30.06 inches Hg (1018.0 mb)
Winds: from the N (10 degrees) at 9 MPH (8 knots; 4.1 m/s)
Visibility: 6 or more miles (10+ km)
Ceiling: ceiling and visibility are OK
Clouds: unknown
Weather: no significant weather observed at this time

METAR text: LFST 171100Z AUTO 03008KT 350V060 CAVOK 25/15 Q1018 NOSIG
Conditions at: LFST (STRASBOURG/ENTZH, FR) observed 1100 UTC 17 June 2019
Temperature: 25.0°C (77°F)
Dewpoint: 15.0°C (59°F) [RH = 54%]
Pressure (altimeter): 30.06 inches Hg (1018.0 mb)
Winds: from the NNE (30 degrees) at 9 MPH (8 knots; 4.1 m/s)
Visibility: 6 or more miles (10+ km)
Ceiling: ceiling and visibility are OK
Clouds: unknown
Weather: no significant weather observed at this time

METAR text: LFST 171030Z AUTO 01008KT 320V050 CAVOK 25/14 Q1019 NOSIG
Conditions at: LFST (STRASBOURG/ENTZH, FR) observed 1030 UTC 17 June 2019
Temperature: 25.0°C (77°F)
Dewpoint: 14.0°C (57°F) [RH = 50%]
Pressure (altimeter): 30.09 inches Hg (1019.0 mb)
Winds: from the N (10 degrees) at 9 MPH (8 knots; 4.1 m/s)
Visibility: 6 or more miles (10+ km)
Ceiling: ceiling and visibility are OK
Clouds: unknown
Weather: no significant weather observed at this time

METAR text: LFST 171000Z AUTO 01005KT 300V070 CAVOK 24/14 Q1019 NOSIG
Conditions at: LFST (STRASBOURG/ENTZH, FR) observed 1000 UTC 17 June 2019
Temperature: 24.0°C (75°F)
Dewpoint: 14.0°C (57°F) [RH = 54%]
Pressure (altimeter): 30.09 inches Hg (1019.0 mb)
Winds: from the N (10 degrees) at 6 MPH (5 knots; 2.6 m/s)
Visibility: 6 or more miles (10+ km)
Ceiling: ceiling and visibility are OK
Clouds: unknown
Weather: no significant weather observed at this time

METAR text: LFST 170930Z AUTO 01007KT 330V060 CAVOK 24/14 Q1019 NOSIG
Conditions at: LFST (STRASBOURG/ENTZH, FR) observed 0930 UTC 17 June 2019
Temperature: 24.0°C (75°F)
Dewpoint: 14.0°C (57°F) [RH = 54%]
Pressure (altimeter): 30.09 inches Hg (1019.0 mb)
Winds: from the N (10 degrees) at 8 MPH (7 knots; 3.6 m/s)
Visibility: 6 or more miles (10+ km)
Ceiling: ceiling and visibility are OK
Clouds: unknown
Weather: no significant weather observed at this time

METAR text: LFST 170900Z AUTO 36006KT 310V040 CAVOK 23/14 Q1020 NOSIG
Conditions at: LFST (STRASBOURG/ENTZH, FR) observed 0900 UTC 17 June 2019
Temperature: 23.0°C (73°F)
Dewpoint: 14.0°C (57°F) [RH = 57%]
Pressure (altimeter): 30.12 inches Hg (1020.0 mb)
Winds: from the N (360 degrees) at 7 MPH (6 knots; 3.1 m/s)
Visibility: 6 or more miles (10+ km)
Ceiling: ceiling and visibility are OK
Clouds: unknown
Weather: no significant weather observed at this time

METAR text: LFST 170830Z AUTO 01006KT 340V050 CAVOK 22/14 Q1020 NOSIG
Conditions at: LFST (STRASBOURG/ENTZH, FR) observed 0830 UTC 17 June 2019
Temperature: 22.0°C (72°F)
Dewpoint: 14.0°C (57°F) [RH = 60%]
Pressure (altimeter): 30.12 inches Hg (1020.0 mb)
Winds: from the N (10 degrees) at 7 MPH (6 knots; 3.1 m/s)
Visibility: 6 or more miles (10+ km)
Ceiling: ceiling and visibility are OK
Clouds: unknown
Weather: no significant weather observed at this time

METAR text: LFST 170800Z AUTO 36005KT 320V040 CAVOK 21/14 Q1020 NOSIG
Conditions at: LFST (STRASBOURG/ENTZH, FR) observed 0800 UTC 17 June 2019
Temperature: 21.0°C (70°F)
Dewpoint: 14.0°C (57°F) [RH = 64%]
Pressure (altimeter): 30.12 inches Hg (1020.0 mb)
Winds: from the N (360 degrees) at 6 MPH (5 knots; 2.6 m/s)
Visibility: 6 or more miles (10+ km)
Ceiling: ceiling and visibility are OK
Clouds: unknown
Weather: no significant weather observed at this time

Forecast for: LFST (STRASBOURG/ENTZH, FR)
Text: TAF LFST 181700Z 1818/1918 VRB03KT CAVOK
Forecast period: 1800 UTC 18 June 2019 to 0600 UTC 19 June 2019
Forecast type: FROM: standard forecast or significant change
Winds: variable direction winds at 3 MPH (3 knots; 1.5 m/s)
Visibility: 6 or more miles 10+ km)
Ceiling: unknown
Clouds: missing
Weather: NSW  (no significant weather)
Text: BECMG 1906/1910 18010KT FEW050CB
Forecast period: 0600 to 1800 UTC 19 June 2019
Forecast type: BECOMING: Conditions expected to become as follows by 1000 UTC 19 June 2019
Winds: from the S (180 degrees) at 12 MPH (10 knots; 5.1 m/s)
Visibility: 6 or more miles 10+ km)
Ceiling: at least 12,000 feet AGL
Clouds: few clouds at 5000 feet AGL
Weather: NSW  (no significant weather)